createdAt,value
2019-03-31T00:01:56.090Z,3.3
2019-03-31T00:04:56.184Z,3.3
2019-03-31T00:07:56.061Z,3.3
2019-03-31T00:10:56.284Z,3.3
2019-03-31T00:13:56.004Z,3.3
2019-03-31T00:16:56.197Z,3.3
2019-03-31T00:19:56.169Z,3.3
2019-03-31T00:22:56.169Z,3.3
2019-03-31T00:25:56.135Z,3.3
2019-03-31T00:28:56.245Z,3.3
2019-03-31T00:31:55.995Z,3.3
2019-03-31T00:34:56.077Z,3.3
2019-03-31T00:37:56.116Z,3.3
2019-03-31T00:40:56.231Z,3.3
2019-03-31T00:43:56.184Z,3.3
2019-03-31T00:46:56.010Z,3.3
2019-03-31T00:49:56.079Z,3.3
2019-03-31T00:52:56.006Z,3.3
2019-03-31T00:55:56.140Z,3.3
2019-03-31T00:58:56.174Z,3.3
2019-03-31T01:01:56.321Z,3.3
2019-03-31T01:04:56.258Z,3.3
2019-03-31T01:07:56.113Z,3.3
2019-03-31T01:10:58.155Z,3.3
2019-03-31T01:13:56.089Z,3.3
2019-03-31T01:16:56.196Z,3.3
2019-03-31T01:19:56.166Z,3.3
2019-03-31T01:22:56.208Z,3.3
2019-03-31T01:25:56.106Z,3.3
2019-03-31T01:28:56.086Z,3.3
2019-03-31T01:31:56.077Z,3.3
2019-03-31T01:34:56.100Z,3.3
2019-03-31T01:37:56.217Z,3.3
2019-03-31T01:40:56.270Z,3.3
2019-03-31T01:43:55.941Z,3.3
2019-03-31T01:46:56.103Z,3.3
2019-03-31T01:49:55.899Z,3.3
2019-03-31T01:52:55.964Z,3.3
2019-03-31T01:55:56.108Z,3.3
2019-03-31T01:58:56.231Z,3.3
2019-03-31T02:02:05.126Z,3.3
2019-03-31T02:04:56.000Z,3.3
2019-03-31T02:07:56.128Z,3.3
2019-03-31T02:10:56.206Z,3.3
2019-03-31T02:13:56.212Z,3.3
2019-03-31T02:16:56.106Z,3.3
2019-03-31T02:19:56.204Z,3.3
2019-03-31T02:22:55.978Z,3.3
2019-03-31T02:25:56.004Z,3.3
2019-03-31T02:28:56.760Z,3.3
2019-03-31T02:31:56.046Z,3.3
2019-03-31T02:34:56.283Z,3.3
2019-03-31T02:37:56.322Z,3.3
2019-03-31T02:40:56.063Z,3.3
2019-03-31T02:43:56.128Z,3.3
2019-03-31T02:46:56.082Z,3.3
2019-03-31T02:49:56.214Z,3.3
2019-03-31T02:52:56.156Z,3.3
2019-03-31T02:55:56.361Z,3.3
2019-03-31T02:58:56.006Z,3.3
2019-03-31T03:01:56.093Z,3.3
2019-03-31T03:04:56.381Z,3.3
2019-03-31T03:07:56.116Z,3.3
2019-03-31T03:10:56.217Z,3.3
2019-03-31T03:13:56.213Z,3.3
2019-03-31T03:16:55.958Z,3.3
2019-03-31T03:19:56.081Z,3.3
2019-03-31T03:22:56.070Z,3.3
2019-03-31T03:25:57.484Z,3.3
2019-03-31T03:28:56.111Z,3.3
2019-03-31T03:31:56.602Z,3.3
2019-03-31T03:34:56.421Z,3.3
2019-03-31T03:37:55.992Z,3.3
2019-03-31T03:40:56.069Z,3.3
2019-03-31T03:44:03.254Z,3.3
2019-03-31T03:46:56.299Z,3.3
2019-03-31T03:49:56.364Z,3.3
2019-03-31T03:52:56.034Z,3.3
2019-03-31T03:55:56.063Z,3.3
2019-03-31T03:58:56.095Z,3.3
2019-03-31T04:01:56.073Z,3.3
2019-03-31T04:04:56.197Z,3.3
2019-03-31T04:07:56.140Z,3.3
2019-03-31T04:10:55.932Z,3.3
2019-03-31T04:13:56.250Z,3.3
2019-03-31T04:16:55.963Z,3.3
2019-03-31T04:19:56.123Z,3.3
2019-03-31T04:22:56.290Z,3.3
2019-03-31T04:25:56.252Z,3.3
2019-03-31T04:28:56.296Z,3.3
2019-03-31T04:31:56.127Z,3.3
2019-03-31T04:34:56.011Z,3.3
2019-03-31T04:37:56.267Z,3.3
2019-03-31T04:40:56.071Z,3.3
2019-03-31T04:43:56.138Z,3.3
2019-03-31T04:46:56.217Z,3.3
2019-03-31T04:49:55.992Z,3.3
2019-03-31T04:52:56.135Z,3.3
2019-03-31T04:55:56.032Z,3.3
2019-03-31T04:58:56.622Z,3.3
2019-03-31T05:01:56.302Z,3.3
2019-03-31T05:04:56.121Z,3.3
2019-03-31T05:07:55.888Z,3.3
2019-03-31T05:10:55.900Z,3.3
2019-03-31T05:13:55.981Z,3.3
2019-03-31T05:16:56.053Z,3.3
2019-03-31T05:19:56.578Z,3.3
2019-03-31T05:22:56.097Z,3.3
2019-03-31T05:25:56.005Z,3.3
2019-03-31T05:28:55.987Z,3.3
2019-03-31T05:31:56.022Z,3.3
2019-03-31T05:34:56.062Z,3.3
2019-03-31T05:37:56.069Z,3.3
2019-03-31T05:40:56.334Z,3.3
2019-03-31T05:44:06.475Z,3.3
2019-03-31T05:46:55.984Z,3.3
2019-03-31T05:49:55.941Z,3.3
2019-03-31T05:52:56.109Z,3.3
2019-03-31T05:55:56.156Z,3.3
2019-03-31T05:58:56.219Z,3.3
2019-03-31T06:01:55.962Z,3.3
2019-03-31T06:04:55.932Z,3.3
2019-03-31T06:07:55.965Z,3.3
2019-03-31T06:10:55.996Z,3.3
2019-03-31T06:13:56.135Z,3.3
2019-03-31T06:16:56.211Z,3.3
2019-03-31T06:19:56.204Z,3.3
2019-03-31T06:22:56.050Z,3.3
2019-03-31T06:25:56.047Z,3.3
2019-03-31T06:28:56.026Z,3.3
2019-03-31T06:31:55.965Z,3.3
2019-03-31T06:34:56.079Z,3.3
2019-03-31T06:37:55.897Z,3.3
2019-03-31T06:40:55.980Z,3.3
2019-03-31T06:43:55.903Z,3.3
2019-03-31T06:46:56.062Z,3.3
2019-03-31T06:49:56.140Z,3.3
2019-03-31T06:52:56.073Z,3.3
2019-03-31T06:55:55.842Z,3.3
2019-03-31T06:58:55.853Z,3.3
2019-03-31T07:01:55.997Z,3.3
2019-03-31T07:05:02.469Z,3.3
2019-03-31T07:07:56.003Z,3.3
2019-03-31T07:10:55.997Z,3.3
2019-03-31T07:13:56.056Z,3.3
2019-03-31T07:16:55.904Z,3.3
2019-03-31T07:19:55.958Z,3.3
2019-03-31T07:22:55.959Z,3.3
2019-03-31T07:25:56.003Z,3.3
2019-03-31T07:28:56.271Z,3.3
2019-03-31T07:31:56.053Z,3.3
2019-03-31T07:34:55.841Z,3.3
2019-03-31T07:37:56.002Z,3.3
2019-03-31T07:41:14.802Z,3.3
2019-03-31T07:43:55.960Z,3.3
2019-03-31T07:46:55.987Z,3.3
2019-03-31T07:49:56.203Z,3.3
2019-03-31T07:52:55.894Z,3.3
2019-03-31T07:55:55.903Z,3.3
2019-03-31T07:58:56.609Z,3.3
2019-03-31T08:01:55.993Z,3.3
2019-03-31T08:04:55.982Z,3.3
2019-03-31T08:07:56.045Z,3.3
2019-03-31T08:10:55.894Z,3.3
2019-03-31T08:13:55.965Z,3.3
2019-03-31T08:16:55.860Z,3.3
2019-03-31T08:19:56.018Z,3.3
2019-03-31T08:22:57.562Z,3.3
2019-03-31T08:25:55.995Z,3.3
2019-03-31T08:28:58.981Z,3.3
2019-03-31T08:31:55.887Z,3.3
2019-03-31T08:34:55.882Z,3.3
2019-03-31T08:37:56.108Z,3.3
2019-03-31T08:40:56.079Z,3.3
2019-03-31T08:43:56.166Z,3.3
2019-03-31T08:46:55.853Z,3.3
2019-03-31T08:49:55.967Z,3.3
2019-03-31T08:52:55.988Z,3.3
2019-03-31T08:55:57.005Z,3.3
2019-03-31T08:58:56.194Z,3.3
2019-03-31T09:01:55.939Z,3.2
2019-03-31T09:04:56.030Z,3.2
2019-03-31T09:07:55.832Z,3.2
2019-03-31T09:10:55.967Z,3.2
2019-03-31T09:13:56.151Z,3.2
2019-03-31T09:16:55.913Z,3.2
2019-03-31T09:19:55.970Z,3.2
2019-03-31T09:22:55.995Z,3.2
2019-03-31T09:25:55.891Z,3.2
2019-03-31T09:28:55.781Z,3.2
2019-03-31T09:31:55.890Z,3.2
2019-03-31T09:34:56.048Z,3.2
2019-03-31T09:37:56.077Z,3.2
2019-03-31T09:40:55.949Z,3.2
2019-03-31T09:43:55.877Z,3.2
2019-03-31T09:46:55.818Z,3.2
2019-03-31T09:49:55.890Z,3.2
2019-03-31T09:52:56.024Z,3.2
2019-03-31T09:55:56.078Z,3.2
2019-03-31T09:58:56.003Z,3.2
2019-03-31T10:01:56.020Z,3.3
2019-03-31T10:04:55.838Z,3.3
2019-03-31T10:07:55.942Z,3.3
2019-03-31T10:10:55.950Z,3.3
2019-03-31T10:13:55.880Z,3.3
2019-03-31T10:16:56.086Z,3.3
2019-03-31T10:19:55.997Z,3.3
2019-03-31T10:22:55.886Z,3.3
2019-03-31T10:25:55.914Z,3.3
2019-03-31T10:28:55.946Z,3.3
2019-03-31T10:31:56.014Z,3.3
2019-03-31T10:34:55.956Z,3.3
2019-03-31T10:37:56.087Z,3.3
2019-03-31T10:40:55.731Z,3.3
2019-03-31T10:43:57.736Z,3.3
2019-03-31T10:46:58.949Z,3.3
2019-03-31T10:49:55.888Z,3.3
2019-03-31T10:52:55.918Z,3.3
2019-03-31T10:55:55.914Z,3.3
2019-03-31T10:58:55.904Z,3.3
2019-03-31T11:01:55.886Z,3.3
2019-03-31T11:04:55.938Z,3.3
2019-03-31T11:07:55.899Z,3.3
2019-03-31T11:10:55.878Z,3.3
2019-03-31T11:13:55.966Z,3.3
2019-03-31T11:16:55.967Z,3.3
2019-03-31T11:19:55.761Z,3.3
2019-03-31T11:22:55.930Z,3.3
2019-03-31T11:25:55.979Z,3.3
2019-03-31T11:28:55.927Z,3.3
2019-03-31T11:31:56.016Z,3.3
2019-03-31T11:34:56.025Z,3.3
2019-03-31T11:37:55.867Z,3.3
2019-03-31T11:40:55.794Z,3.3
2019-03-31T11:43:55.981Z,3.3
2019-03-31T11:46:55.882Z,3.3
2019-03-31T11:49:55.931Z,3.3
2019-03-31T11:52:55.955Z,3.3
2019-03-31T11:55:55.740Z,3.3
2019-03-31T11:58:55.783Z,3.3
2019-03-31T12:01:55.916Z,3.4
2019-03-31T12:04:56.113Z,3.4
2019-03-31T12:07:55.940Z,3.4
2019-03-31T12:10:56.311Z,3.4
2019-03-31T12:13:55.833Z,3.4
2019-03-31T12:16:55.864Z,3.4
2019-03-31T12:19:55.863Z,3.4
2019-03-31T12:22:55.951Z,3.4
2019-03-31T12:25:56.053Z,3.4
2019-03-31T12:28:56.042Z,3.4
2019-03-31T12:31:55.725Z,3.4
2019-03-31T12:34:55.983Z,3.4
2019-03-31T12:37:55.977Z,3.4
2019-03-31T12:40:55.855Z,3.4
2019-03-31T12:43:55.955Z,3.4
2019-03-31T12:46:56.985Z,3.4
2019-03-31T12:49:55.849Z,3.4
2019-03-31T12:52:55.798Z,3.4
2019-03-31T12:56:01.101Z,3.4
2019-03-31T12:58:55.941Z,3.4
2019-03-31T13:01:56.096Z,3.4
2019-03-31T13:04:58.294Z,3.4
2019-03-31T13:07:57.411Z,3.4
2019-03-31T13:10:55.765Z,3.4
2019-03-31T13:13:55.829Z,3.4
2019-03-31T13:16:55.919Z,3.4
2019-03-31T13:19:56.023Z,3.4
2019-03-31T13:22:55.804Z,3.4
2019-03-31T13:25:55.774Z,3.4
2019-03-31T13:28:55.802Z,3.4
2019-03-31T13:31:55.851Z,3.4
2019-03-31T13:34:55.920Z,3.4
2019-03-31T13:38:12.101Z,3.4
2019-03-31T13:40:55.730Z,3.4
2019-03-31T13:43:55.809Z,3.4
2019-03-31T13:46:55.880Z,3.4
2019-03-31T13:49:55.804Z,3.4
2019-03-31T13:52:55.863Z,3.4
2019-03-31T13:55:56.224Z,3.4
2019-03-31T13:58:55.730Z,3.4
2019-03-31T14:01:55.781Z,3.4
2019-03-31T14:04:55.923Z,3.4
2019-03-31T14:07:55.861Z,3.4
2019-03-31T14:10:55.926Z,3.4
2019-03-31T14:13:56.611Z,3.4
2019-03-31T15:01:12.271Z,4.3
2019-03-31T15:04:12.186Z,4.3
2019-03-31T15:07:12.501Z,4.3
2019-03-31T15:10:12.210Z,4.3
2019-03-31T15:13:12.285Z,4.3
2019-03-31T15:16:13.682Z,4.3
2019-03-31T15:19:12.274Z,4.3
2019-03-31T15:22:12.047Z,4.3
2019-03-31T15:25:12.132Z,4.3
2019-03-31T15:28:12.211Z,4.3
2019-03-31T15:31:12.143Z,4.3
2019-03-31T15:34:12.228Z,4.3
2019-03-31T15:37:12.226Z,4.3
2019-03-31T15:40:12.316Z,4.3
2019-03-31T15:43:12.134Z,4.3
2019-03-31T15:46:12.990Z,4.3
2019-03-31T15:49:12.258Z,4.3
2019-03-31T15:52:12.307Z,4.3
2019-03-31T15:55:12.385Z,4.3
2019-03-31T15:58:12.133Z,4.3
2019-03-31T16:01:12.124Z,5.5
2019-03-31T16:04:12.159Z,5.5
2019-03-31T16:07:12.129Z,5.5
2019-03-31T16:10:12.259Z,5.5
2019-03-31T16:13:12.461Z,5.5
2019-03-31T16:16:14.776Z,5.5
2019-03-31T16:19:12.153Z,5.5
2019-03-31T16:22:12.115Z,5.5
2019-03-31T16:25:12.143Z,5.5
2019-03-31T16:28:12.242Z,5.5
2019-03-31T16:31:12.305Z,5.5
2019-03-31T16:34:12.325Z,5.5
2019-03-31T16:37:12.550Z,5.5
2019-03-31T16:40:12.054Z,5.5
2019-03-31T16:43:12.179Z,5.5
2019-03-31T16:46:12.110Z,5.5
2019-03-31T16:49:12.215Z,5.5
2019-03-31T16:52:12.210Z,5.5
2019-03-31T16:55:12.133Z,5.5
2019-03-31T16:58:12.438Z,5.5
2019-03-31T17:01:12.238Z,5.4
2019-03-31T17:04:12.202Z,5.4
2019-03-31T17:07:14.008Z,5.4
2019-03-31T17:10:12.521Z,5.4
2019-03-31T17:13:12.094Z,5.4
2019-03-31T17:16:15.990Z,5.4
2019-03-31T17:19:12.069Z,5.4
2019-03-31T17:22:13.181Z,5.4
2019-03-31T17:25:12.264Z,5.4
2019-03-31T17:28:12.283Z,5.4
2019-03-31T17:34:12.175Z,5.4
2019-03-31T17:37:12.142Z,5.4
2019-03-31T17:40:12.137Z,5.4
2019-03-31T17:43:12.341Z,5.4
2019-03-31T17:46:12.286Z,5.4
2019-03-31T17:49:12.147Z,5.4
2019-03-31T17:52:12.042Z,5.4
2019-03-31T17:55:12.170Z,5.4
2019-03-31T17:58:12.270Z,5.4
2019-03-31T18:01:12.156Z,4.9
2019-03-31T18:04:12.140Z,4.9
2019-03-31T18:07:12.079Z,4.9
2019-03-31T18:10:21.878Z,4.9
2019-03-31T18:13:12.095Z,4.9
2019-03-31T18:16:12.250Z,4.9
2019-03-31T18:19:12.235Z,4.9
2019-03-31T18:22:17.593Z,4.9
2019-03-31T18:25:12.113Z,4.9
2019-03-31T18:28:12.076Z,4.9
2019-03-31T18:31:13.133Z,4.9
2019-03-31T18:34:13.229Z,4.9
2019-03-31T18:37:12.834Z,4.9
2019-03-31T18:40:12.197Z,4.9
2019-03-31T18:43:12.120Z,4.9
2019-03-31T18:46:12.011Z,4.9
2019-03-31T18:49:12.052Z,4.9
2019-03-31T18:52:12.072Z,4.9
2019-03-31T18:55:12.347Z,4.9
2019-03-31T18:58:12.279Z,4.9
2019-03-31T19:01:12.933Z,4.5
2019-03-31T19:04:12.054Z,4.5
2019-03-31T19:07:12.169Z,4.5
2019-03-31T19:10:25.481Z,4.5
2019-03-31T19:13:12.898Z,4.5
2019-03-31T19:16:12.171Z,4.5
2019-03-31T19:19:12.338Z,4.5
2019-03-31T19:22:12.103Z,4.5
2019-03-31T19:25:12.084Z,4.5
2019-03-31T19:28:12.206Z,4.5
2019-03-31T19:31:12.190Z,4.5
2019-03-31T19:34:12.219Z,4.5
2019-03-31T19:37:12.218Z,4.5
2019-03-31T19:40:11.942Z,4.5
2019-03-31T19:43:12.065Z,4.5
2019-03-31T19:46:12.140Z,4.5
2019-03-31T19:49:12.180Z,4.5
2019-03-31T19:52:12.297Z,4.5
2019-03-31T19:55:12.146Z,4.5
2019-03-31T19:58:12.114Z,4.5
2019-03-31T20:01:12.041Z,4.4
2019-03-31T20:04:12.145Z,4.4
2019-03-31T20:07:12.508Z,4.4
2019-03-31T20:10:14.900Z,4.4
2019-03-31T20:13:12.297Z,4.4
2019-03-31T20:16:12.081Z,4.4
2019-03-31T20:19:12.022Z,4.4
2019-03-31T20:22:12.176Z,4.4
2019-03-31T20:25:12.116Z,4.4
2019-03-31T20:28:12.379Z,4.4
2019-03-31T20:31:11.985Z,4.4
2019-03-31T20:34:12.327Z,4.4
2019-03-31T20:37:12.160Z,4.4
2019-03-31T20:40:12.291Z,4.4
2019-03-31T20:43:12.149Z,4.4
2019-03-31T20:46:11.905Z,4.4
2019-03-31T20:49:12.043Z,4.4
2019-03-31T20:52:11.987Z,4.4
2019-03-31T20:55:17.395Z,4.4
2019-03-31T20:58:12.072Z,4.4
2019-03-31T21:01:12.181Z,4.4
2019-03-31T21:04:11.949Z,4.4
2019-03-31T21:07:12.102Z,4.4
2019-03-31T21:10:12.156Z,4.4
2019-03-31T21:13:12.187Z,4.4
2019-03-31T21:16:12.193Z,4.4
2019-03-31T21:19:12.318Z,4.4
2019-03-31T21:22:12.043Z,4.4
2019-03-31T21:25:14.418Z,4.4
2019-03-31T21:28:12.257Z,4.4
2019-03-31T21:31:12.205Z,4.4
2019-03-31T21:34:12.246Z,4.4
2019-03-31T21:37:12.012Z,4.4
2019-03-31T21:40:12.059Z,4.4
2019-03-31T21:43:12.024Z,4.4
2019-03-31T21:46:12.036Z,4.4
2019-03-31T21:49:12.133Z,4.4
2019-03-31T21:52:12.167Z,4.4
2019-03-31T21:55:12.211Z,4.4
2019-03-31T21:58:12.121Z,4.4
2019-03-31T22:01:12.084Z,4.3
2019-03-31T22:04:12.099Z,4.3
2019-03-31T22:07:12.180Z,4.3
2019-03-31T22:10:11.937Z,4.3
2019-03-31T22:13:12.037Z,4.3
2019-03-31T22:16:12.123Z,4.3
2019-03-31T22:19:12.258Z,4.3
2019-03-31T22:22:12.336Z,4.3
2019-03-31T22:25:12.285Z,4.3
2019-03-31T22:28:11.909Z,4.3
2019-03-31T22:31:11.960Z,4.3
2019-03-31T22:34:12.066Z,4.3
2019-03-31T22:37:12.101Z,4.3
2019-03-31T22:40:12.280Z,4.3
2019-03-31T22:43:11.888Z,4.3
2019-03-31T22:46:12.043Z,4.3
2019-03-31T22:49:11.966Z,4.3
2019-03-31T22:52:12.209Z,4.3
2019-03-31T22:55:12.098Z,4.3
2019-03-31T22:58:12.094Z,4.3
2019-03-31T23:01:11.918Z,4.2
2019-03-31T23:04:12.069Z,4.2
2019-03-31T23:07:12.040Z,4.2
2019-03-31T23:10:12.203Z,4.2
2019-03-31T23:13:12.093Z,4.2
2019-03-31T23:16:12.105Z,4.2
2019-03-31T23:19:11.916Z,4.2
2019-03-31T23:22:11.963Z,4.2
2019-03-31T23:25:12.068Z,4.2
2019-03-31T23:28:12.444Z,4.2
2019-03-31T23:31:12.152Z,4.2
2019-03-31T23:34:11.860Z,4.2
2019-03-31T23:37:11.905Z,4.2
2019-03-31T23:40:11.982Z,4.2
2019-03-31T23:43:11.991Z,4.2
2019-03-31T23:46:12.109Z,4.2
2019-03-31T23:49:12.190Z,4.2
2019-03-31T23:52:12.025Z,4.2
2019-03-31T23:55:11.965Z,4.2
2019-03-31T23:58:12.075Z,4.2
